Terminal Aerodrome Forecast
Issued by NWS

Home | Current Version | Previous Version | Text Only | Print | Product List | Glossary On
Versions: 1 2 3 4 5 6 7 8 9 10 11 12 13 14 15 16 17 18 19 20 21
000
FTUS41 KGYX 270325 AAB
TAFRKD
TAF AMD
KRKD 270325Z 2703/2724 03012G20KT P6SM SCT120 OVC200
     FM270400 02014G24KT P6SM -SHSN SCT025 BKN060 OVC080
     FM270600 01022G32KT 1SM -SN BLSN BKN015 OVC025
     FM270900 01030G40KT 1/2SM SN BLSN VV006
     FM271100 01032G45KT 1/4SM +SN BLSN VV002
     FM272200 01027G37KT 1SM -SN BLSN OVC003
      AMD LTD TO CLD VIS AND WIND=

USA.gov is the U.S. government's official web portal to all federal, state and local government web resources and services.